sensor_id;sensor_type;location;lat;lon;timestamp;P1;durP1;ratioP1;P2;durP2;ratioP2
76256;SDS011;65074;50.436;8.672;2023-01-26T00:00:48;5.85;;;2.90;;
76256;SDS011;65074;50.436;8.672;2023-01-26T00:03:13;4.00;;;2.25;;
76256;SDS011;65074;50.436;8.672;2023-01-26T00:05:39;5.90;;;2.50;;
76256;SDS011;65074;50.436;8.672;2023-01-26T00:08:05;2.63;;;1.67;;
76256;SDS011;65074;50.436;8.672;2023-01-26T00:10:31;5.57;;;2.50;;
76256;SDS011;65074;50.436;8.672;2023-01-26T00:12:56;3.55;;;1.75;;
76256;SDS011;65074;50.436;8.672;2023-01-26T00:15:22;6.60;;;2.72;;
76256;SDS011;65074;50.436;8.672;2023-01-26T00:17:47;8.38;;;2.92;;
76256;SDS011;65074;50.436;8.672;2023-01-26T00:20:15;5.47;;;2.38;;
76256;SDS011;65074;50.436;8.672;2023-01-26T00:22:41;7.13;;;2.67;;
76256;SDS011;65074;50.436;8.672;2023-01-26T00:25:06;8.48;;;2.67;;
76256;SDS011;65074;50.436;8.672;2023-01-26T00:27:32;7.97;;;3.45;;
76256;SDS011;65074;50.436;8.672;2023-01-26T00:29:58;9.43;;;3.63;;
76256;SDS011;65074;50.436;8.672;2023-01-26T00:32:24;9.68;;;3.92;;
76256;SDS011;65074;50.436;8.672;2023-01-26T00:34:49;9.38;;;3.92;;
76256;SDS011;65074;50.436;8.672;2023-01-26T00:37:15;8.10;;;2.88;;
76256;SDS011;65074;50.436;8.672;2023-01-26T00:39:40;8.45;;;4.18;;
76256;SDS011;65074;50.436;8.672;2023-01-26T00:42:05;9.32;;;3.97;;
76256;SDS011;65074;50.436;8.672;2023-01-26T00:44:31;6.75;;;3.33;;
76256;SDS011;65074;50.436;8.672;2023-01-26T00:46:57;6.15;;;2.17;;
76256;SDS011;65074;50.436;8.672;2023-01-26T00:49:22;4.60;;;2.50;;
76256;SDS011;65074;50.436;8.672;2023-01-26T00:51:48;7.40;;;3.28;;
76256;SDS011;65074;50.436;8.672;2023-01-26T00:54:13;7.05;;;3.42;;
76256;SDS011;65074;50.436;8.672;2023-01-26T00:56:38;9.90;;;3.50;;
76256;SDS011;65074;50.436;8.672;2023-01-26T00:59:04;3.65;;;1.92;;
76256;SDS011;65074;50.436;8.672;2023-01-26T01:01:30;8.38;;;3.28;;
76256;SDS011;65074;50.436;8.672;2023-01-26T01:03:56;8.13;;;3.90;;
76256;SDS011;65074;50.436;8.672;2023-01-26T01:06:21;9.30;;;4.03;;
76256;SDS011;65074;50.436;8.672;2023-01-26T01:08:49;10.98;;;3.35;;
76256;SDS011;65074;50.436;8.672;2023-01-26T01:11:14;6.72;;;3.58;;
76256;SDS011;65074;50.436;8.672;2023-01-26T01:13:40;7.15;;;3.20;;
76256;SDS011;65074;50.436;8.672;2023-01-26T01:16:06;11.48;;;4.25;;
76256;SDS011;65074;50.436;8.672;2023-01-26T01:18:33;12.18;;;4.50;;
76256;SDS011;65074;50.436;8.672;2023-01-26T01:21:11;10.07;;;4.53;;
76256;SDS011;65074;50.436;8.672;2023-01-26T01:23:40;12.82;;;5.10;;
76256;SDS011;65074;50.436;8.672;2023-01-26T01:26:07;10.85;;;4.28;;
76256;SDS011;65074;50.436;8.672;2023-01-26T01:28:33;9.48;;;3.40;;
76256;SDS011;65074;50.436;8.672;2023-01-26T01:31:05;5.18;;;2.35;;
76256;SDS011;65074;50.436;8.672;2023-01-26T01:33:32;9.10;;;4.67;;
76256;SDS011;65074;50.436;8.672;2023-01-26T01:35:59;8.82;;;3.83;;
76256;SDS011;65074;50.436;8.672;2023-01-26T01:38:32;7.85;;;4.22;;
76256;SDS011;65074;50.436;8.672;2023-01-26T01:40:58;11.77;;;3.78;;
76256;SDS011;65074;50.436;8.672;2023-01-26T01:43:24;11.43;;;4.43;;
76256;SDS011;65074;50.436;8.672;2023-01-26T01:45:50;10.88;;;4.32;;
76256;SDS011;65074;50.436;8.672;2023-01-26T01:50:50;10.10;;;4.63;;
76256;SDS011;65074;50.436;8.672;2023-01-26T01:53:19;10.85;;;3.78;;
76256;SDS011;65074;50.436;8.672;2023-01-26T01:55:56;9.75;;;4.30;;
76256;SDS011;65074;50.436;8.672;2023-01-26T02:00:52;13.63;;;5.13;;
76256;SDS011;65074;50.436;8.672;2023-01-26T02:03:17;14.02;;;5.40;;
76256;SDS011;65074;50.436;8.672;2023-01-26T02:08:35;14.15;;;5.85;;
76256;SDS011;65074;50.436;8.672;2023-01-26T02:11:03;14.95;;;5.40;;
76256;SDS011;65074;50.436;8.672;2023-01-26T02:13:33;14.00;;;6.10;;
76256;SDS011;65074;50.436;8.672;2023-01-26T02:15:59;15.77;;;5.10;;
76256;SDS011;65074;50.436;8.672;2023-01-26T02:18:25;17.15;;;7.20;;
76256;SDS011;65074;50.436;8.672;2023-01-26T02:20:52;13.57;;;4.90;;
76256;SDS011;65074;50.436;8.672;2023-01-26T02:23:26;19.02;;;7.10;;
76256;SDS011;65074;50.436;8.672;2023-01-26T02:28:26;14.23;;;6.45;;
76256;SDS011;65074;50.436;8.672;2023-01-26T02:30:52;14.02;;;5.28;;
76256;SDS011;65074;50.436;8.672;2023-01-26T02:33:20;17.58;;;6.28;;
76256;SDS011;65074;50.436;8.672;2023-01-26T02:35:53;14.68;;;6.45;;
76256;SDS011;65074;50.436;8.672;2023-01-26T02:38:20;9.40;;;4.35;;
76256;SDS011;65074;50.436;8.672;2023-01-26T02:40:48;10.20;;;3.88;;
76256;SDS011;65074;50.436;8.672;2023-01-26T02:43:19;18.23;;;7.00;;
76256;SDS011;65074;50.436;8.672;2023-01-26T02:45:47;8.32;;;4.13;;
76256;SDS011;65074;50.436;8.672;2023-01-26T02:48:13;13.13;;;5.82;;
76256;SDS011;65074;50.436;8.672;2023-01-26T02:50:59;13.80;;;5.60;;
76256;SDS011;65074;50.436;8.672;2023-01-26T02:53:24;11.98;;;5.93;;
76256;SDS011;65074;50.436;8.672;2023-01-26T02:55:49;15.07;;;6.63;;
76256;SDS011;65074;50.436;8.672;2023-01-26T02:58:16;10.52;;;4.90;;
76256;SDS011;65074;50.436;8.672;2023-01-26T03:00:41;14.43;;;6.45;;
76256;SDS011;65074;50.436;8.672;2023-01-26T03:03:11;11.27;;;4.78;;
76256;SDS011;65074;50.436;8.672;2023-01-26T03:05:39;7.45;;;3.78;;
76256;SDS011;65074;50.436;8.672;2023-01-26T03:08:05;8.95;;;3.28;;
76256;SDS011;65074;50.436;8.672;2023-01-26T03:10:34;7.07;;;3.03;;
76256;SDS011;65074;50.436;8.672;2023-01-26T03:13:00;11.23;;;5.45;;
76256;SDS011;65074;50.436;8.672;2023-01-26T03:15:26;8.95;;;4.05;;
76256;SDS011;65074;50.436;8.672;2023-01-26T03:18:08;13.35;;;4.78;;
76256;SDS011;65074;50.436;8.672;2023-01-26T03:20:54;4.85;;;1.45;;
76256;SDS011;65074;50.436;8.672;2023-01-26T03:23:38;7.75;;;3.80;;
76256;SDS011;65074;50.436;8.672;2023-01-26T03:26:24;2.45;;;1.08;;
76256;SDS011;65074;50.436;8.672;2023-01-26T03:29:09;8.38;;;3.90;;
76256;SDS011;65074;50.436;8.672;2023-01-26T03:31:34;6.93;;;3.90;;
76256;SDS011;65074;50.436;8.672;2023-01-26T03:33:59;7.38;;;4.05;;
76256;SDS011;65074;50.436;8.672;2023-01-26T03:36:25;9.80;;;4.05;;
76256;SDS011;65074;50.436;8.672;2023-01-26T03:38:50;11.48;;;5.60;;
76256;SDS011;65074;50.436;8.672;2023-01-26T03:41:17;11.70;;;5.07;;
76256;SDS011;65074;50.436;8.672;2023-01-26T03:44:01;11.98;;;4.97;;
76256;SDS011;65074;50.436;8.672;2023-01-26T03:46:46;9.77;;;3.55;;
76256;SDS011;65074;50.436;8.672;2023-01-26T03:49:30;7.85;;;3.97;;
76256;SDS011;65074;50.436;8.672;2023-01-26T03:52:13;9.73;;;4.35;;
76256;SDS011;65074;50.436;8.672;2023-01-26T03:54:59;7.88;;;3.83;;
76256;SDS011;65074;50.436;8.672;2023-01-26T03:57:44;8.65;;;3.88;;
76256;SDS011;65074;50.436;8.672;2023-01-26T04:00:09;11.93;;;4.40;;
76256;SDS011;65074;50.436;8.672;2023-01-26T04:02:37;9.02;;;4.55;;
76256;SDS011;65074;50.436;8.672;2023-01-26T04:05:21;9.75;;;4.47;;
76256;SDS011;65074;50.436;8.672;2023-01-26T04:08:05;10.18;;;3.63;;
76256;SDS011;65074;50.436;8.672;2023-01-26T04:10:59;6.72;;;3.67;;
76256;SDS011;65074;50.436;8.672;2023-01-26T04:13:24;4.97;;;2.53;;
76256;SDS011;65074;50.436;8.672;2023-01-26T04:16:16;7.63;;;4.22;;
76256;SDS011;65074;50.436;8.672;2023-01-26T04:19:00;8.23;;;4.40;;
76256;SDS011;65074;50.436;8.672;2023-01-26T04:21:45;6.57;;;3.53;;
76256;SDS011;65074;50.436;8.672;2023-01-26T04:24:18;8.43;;;2.85;;
76256;SDS011;65074;50.436;8.672;2023-01-26T04:26:47;7.90;;;3.65;;
76256;SDS011;65074;50.436;8.672;2023-01-26T04:29:17;9.20;;;4.53;;
76256;SDS011;65074;50.436;8.672;2023-01-26T04:31:44;10.10;;;4.43;;
76256;SDS011;65074;50.436;8.672;2023-01-26T04:34:13;8.40;;;4.07;;
76256;SDS011;65074;50.436;8.672;2023-01-26T04:36:40;8.07;;;3.40;;
76256;SDS011;65074;50.436;8.672;2023-01-26T04:39:06;9.18;;;4.40;;
76256;SDS011;65074;50.436;8.672;2023-01-26T04:41:34;6.88;;;3.95;;
76256;SDS011;65074;50.436;8.672;2023-01-26T04:44:04;9.95;;;3.85;;
76256;SDS011;65074;50.436;8.672;2023-01-26T04:46:30;8.20;;;4.00;;
76256;SDS011;65074;50.436;8.672;2023-01-26T04:48:57;11.30;;;5.30;;
76256;SDS011;65074;50.436;8.672;2023-01-26T04:51:22;11.55;;;4.75;;
76256;SDS011;65074;50.436;8.672;2023-01-26T04:53:48;9.63;;;4.63;;
76256;SDS011;65074;50.436;8.672;2023-01-26T04:56:24;6.47;;;3.20;;
76256;SDS011;65074;50.436;8.672;2023-01-26T04:58:52;12.27;;;4.70;;
76256;SDS011;65074;50.436;8.672;2023-01-26T05:01:19;8.98;;;4.40;;
76256;SDS011;65074;50.436;8.672;2023-01-26T05:03:45;9.75;;;5.32;;
76256;SDS011;65074;50.436;8.672;2023-01-26T05:06:11;7.85;;;3.63;;
76256;SDS011;65074;50.436;8.672;2023-01-26T05:08:37;13.23;;;5.57;;
76256;SDS011;65074;50.436;8.672;2023-01-26T05:11:03;11.27;;;4.18;;
76256;SDS011;65074;50.436;8.672;2023-01-26T05:13:47;13.70;;;4.85;;
76256;SDS011;65074;50.436;8.672;2023-01-26T05:16:20;9.23;;;3.75;;
76256;SDS011;65074;50.436;8.672;2023-01-26T05:18:58;10.25;;;5.60;;
76256;SDS011;65074;50.436;8.672;2023-01-26T05:21:48;14.25;;;5.72;;
76256;SDS011;65074;50.436;8.672;2023-01-26T05:24:13;13.45;;;6.10;;
76256;SDS011;65074;50.436;8.672;2023-01-26T05:27:05;11.88;;;4.93;;
76256;SDS011;65074;50.436;8.672;2023-01-26T05:29:50;11.15;;;5.22;;
76256;SDS011;65074;50.436;8.672;2023-01-26T05:32:17;10.45;;;4.38;;
76256;SDS011;65074;50.436;8.672;2023-01-26T05:34:42;9.52;;;4.53;;
76256;SDS011;65074;50.436;8.672;2023-01-26T05:37:08;11.15;;;4.63;;
76256;SDS011;65074;50.436;8.672;2023-01-26T05:39:36;13.18;;;5.55;;
76256;SDS011;65074;50.436;8.672;2023-01-26T05:42:04;12.70;;;5.07;;
76256;SDS011;65074;50.436;8.672;2023-01-26T05:44:44;10.73;;;4.63;;
76256;SDS011;65074;50.436;8.672;2023-01-26T05:47:12;10.27;;;5.15;;
76256;SDS011;65074;50.436;8.672;2023-01-26T05:49:40;7.32;;;3.92;;
76256;SDS011;65074;50.436;8.672;2023-01-26T05:52:09;7.05;;;3.95;;
76256;SDS011;65074;50.436;8.672;2023-01-26T05:54:38;9.93;;;5.25;;
76256;SDS011;65074;50.436;8.672;2023-01-26T05:57:04;10.40;;;5.13;;
76256;SDS011;65074;50.436;8.672;2023-01-26T05:59:32;7.95;;;4.70;;
76256;SDS011;65074;50.436;8.672;2023-01-26T06:01:57;7.32;;;3.35;;
76256;SDS011;65074;50.436;8.672;2023-01-26T06:04:24;12.10;;;5.15;;
76256;SDS011;65074;50.436;8.672;2023-01-26T06:06:56;9.00;;;4.22;;
76256;SDS011;65074;50.436;8.672;2023-01-26T06:09:27;9.45;;;4.25;;
76256;SDS011;65074;50.436;8.672;2023-01-26T06:12:14;12.23;;;6.25;;
76256;SDS011;65074;50.436;8.672;2023-01-26T06:15:02;9.93;;;4.03;;
76256;SDS011;65074;50.436;8.672;2023-01-26T06:17:35;11.35;;;4.93;;
76256;SDS011;65074;50.436;8.672;2023-01-26T06:20:03;9.35;;;4.13;;
76256;SDS011;65074;50.436;8.672;2023-01-26T06:22:30;13.20;;;5.70;;
76256;SDS011;65074;50.436;8.672;2023-01-26T06:24:57;10.90;;;5.50;;
76256;SDS011;65074;50.436;8.672;2023-01-26T06:27:22;10.20;;;5.50;;
76256;SDS011;65074;50.436;8.672;2023-01-26T06:29:49;8.65;;;4.93;;
76256;SDS011;65074;50.436;8.672;2023-01-26T06:32:15;14.70;;;5.57;;
76256;SDS011;65074;50.436;8.672;2023-01-26T06:34:43;10.70;;;5.43;;
76256;SDS011;65074;50.436;8.672;2023-01-26T06:37:08;11.93;;;5.15;;
76256;SDS011;65074;50.436;8.672;2023-01-26T06:39:37;10.60;;;5.80;;
76256;SDS011;65074;50.436;8.672;2023-01-26T06:42:03;10.50;;;5.72;;
76256;SDS011;65074;50.436;8.672;2023-01-26T06:44:29;11.52;;;5.57;;
76256;SDS011;65074;50.436;8.672;2023-01-26T06:46:54;14.18;;;6.20;;
76256;SDS011;65074;50.436;8.672;2023-01-26T06:49:20;9.02;;;5.03;;
76256;SDS011;65074;50.436;8.672;2023-01-26T06:51:55;12.48;;;6.30;;
76256;SDS011;65074;50.436;8.672;2023-01-26T06:54:39;11.75;;;5.32;;
76256;SDS011;65074;50.436;8.672;2023-01-26T06:57:25;14.35;;;6.20;;
76256;SDS011;65074;50.436;8.672;2023-01-26T07:00:08;8.98;;;4.43;;
76256;SDS011;65074;50.436;8.672;2023-01-26T07:02:51;11.75;;;5.40;;
76256;SDS011;65074;50.436;8.672;2023-01-26T07:05:16;11.55;;;5.65;;
76256;SDS011;65074;50.436;8.672;2023-01-26T07:07:42;10.95;;;5.38;;
76256;SDS011;65074;50.436;8.672;2023-01-26T07:10:07;10.52;;;5.57;;
76256;SDS011;65074;50.436;8.672;2023-01-26T07:12:40;11.70;;;6.00;;
76256;SDS011;65074;50.436;8.672;2023-01-26T07:15:08;11.00;;;5.25;;
76256;SDS011;65074;50.436;8.672;2023-01-26T07:17:35;11.07;;;6.30;;
76256;SDS011;65074;50.436;8.672;2023-01-26T07:20:02;8.57;;;4.68;;
76256;SDS011;65074;50.436;8.672;2023-01-26T07:22:27;11.52;;;4.90;;
76256;SDS011;65074;50.436;8.672;2023-01-26T07:24:53;10.25;;;5.47;;
76256;SDS011;65074;50.436;8.672;2023-01-26T07:27:18;8.70;;;4.18;;
76256;SDS011;65074;50.436;8.672;2023-01-26T07:29:43;9.35;;;4.63;;
76256;SDS011;65074;50.436;8.672;2023-01-26T07:32:10;8.57;;;4.78;;
76256;SDS011;65074;50.436;8.672;2023-01-26T07:34:35;9.55;;;5.00;;
76256;SDS011;65074;50.436;8.672;2023-01-26T07:37:01;10.60;;;3.97;;
76256;SDS011;65074;50.436;8.672;2023-01-26T07:39:26;11.90;;;5.35;;
76256;SDS011;65074;50.436;8.672;2023-01-26T07:41:51;9.93;;;4.80;;
76256;SDS011;65074;50.436;8.672;2023-01-26T07:44:33;8.35;;;4.15;;
76256;SDS011;65074;50.436;8.672;2023-01-26T07:46:59;10.43;;;4.72;;
76256;SDS011;65074;50.436;8.672;2023-01-26T07:49:24;10.48;;;4.97;;
76256;SDS011;65074;50.436;8.672;2023-01-26T07:51:49;10.70;;;5.50;;
76256;SDS011;65074;50.436;8.672;2023-01-26T07:54:16;9.10;;;4.95;;
76256;SDS011;65074;50.436;8.672;2023-01-26T07:56:41;9.80;;;5.00;;
76256;SDS011;65074;50.436;8.672;2023-01-26T07:59:08;8.02;;;3.90;;
76256;SDS011;65074;50.436;8.672;2023-01-26T08:01:35;11.60;;;5.53;;
76256;SDS011;65074;50.436;8.672;2023-01-26T08:04:00;11.02;;;4.90;;
76256;SDS011;65074;50.436;8.672;2023-01-26T08:06:25;5.05;;;2.60;;
76256;SDS011;65074;50.436;8.672;2023-01-26T08:08:51;11.40;;;5.32;;
76256;SDS011;65074;50.436;8.672;2023-01-26T08:11:18;9.38;;;4.22;;
76256;SDS011;65074;50.436;8.672;2023-01-26T08:13:43;10.07;;;4.93;;
76256;SDS011;65074;50.436;8.672;2023-01-26T08:16:09;8.48;;;4.47;;
76256;SDS011;65074;50.436;8.672;2023-01-26T08:18:40;5.13;;;2.47;;
76256;SDS011;65074;50.436;8.672;2023-01-26T08:21:07;9.07;;;5.10;;
76256;SDS011;65074;50.436;8.672;2023-01-26T08:23:33;8.38;;;4.45;;
76256;SDS011;65074;50.436;8.672;2023-01-26T08:26:02;7.80;;;4.03;;
76256;SDS011;65074;50.436;8.672;2023-01-26T08:28:35;9.75;;;4.97;;
76256;SDS011;65074;50.436;8.672;2023-01-26T08:31:05;6.78;;;4.15;;
76256;SDS011;65074;50.436;8.672;2023-01-26T08:33:38;6.82;;;3.33;;
76256;SDS011;65074;50.436;8.672;2023-01-26T08:36:06;7.50;;;3.80;;
76256;SDS011;65074;50.436;8.672;2023-01-26T08:38:34;8.82;;;4.65;;
76256;SDS011;65074;50.436;8.672;2023-01-26T08:41:00;7.78;;;4.47;;
76256;SDS011;65074;50.436;8.672;2023-01-26T08:43:26;8.50;;;4.63;;
76256;SDS011;65074;50.436;8.672;2023-01-26T08:45:51;9.95;;;4.93;;
76256;SDS011;65074;50.436;8.672;2023-01-26T08:48:17;12.25;;;5.93;;
76256;SDS011;65074;50.436;8.672;2023-01-26T08:50:43;8.90;;;4.10;;
76256;SDS011;65074;50.436;8.672;2023-01-26T08:53:09;8.88;;;4.13;;
76256;SDS011;65074;50.436;8.672;2023-01-26T08:55:35;11.90;;;4.95;;
76256;SDS011;65074;50.436;8.672;2023-01-26T08:58:00;10.50;;;4.22;;
76256;SDS011;65074;50.436;8.672;2023-01-26T09:00:26;12.55;;;4.65;;
76256;SDS011;65074;50.436;8.672;2023-01-26T09:02:58;10.30;;;5.30;;
76256;SDS011;65074;50.436;8.672;2023-01-26T09:05:24;7.75;;;3.05;;
76256;SDS011;65074;50.436;8.672;2023-01-26T09:07:50;8.77;;;4.07;;
76256;SDS011;65074;50.436;8.672;2023-01-26T09:10:15;7.78;;;4.30;;
76256;SDS011;65074;50.436;8.672;2023-01-26T09:12:41;7.80;;;4.18;;
76256;SDS011;65074;50.436;8.672;2023-01-26T09:15:07;7.68;;;4.35;;
76256;SDS011;65074;50.436;8.672;2023-01-26T09:17:33;8.25;;;3.63;;
76256;SDS011;65074;50.436;8.672;2023-01-26T09:19:58;10.00;;;4.30;;
76256;SDS011;65074;50.436;8.672;2023-01-26T09:22:24;10.20;;;4.07;;
76256;SDS011;65074;50.436;8.672;2023-01-26T09:24:49;6.50;;;3.75;;
76256;SDS011;65074;50.436;8.672;2023-01-26T09:27:15;8.60;;;4.43;;
76256;SDS011;65074;50.436;8.672;2023-01-26T09:29:40;9.02;;;4.18;;
76256;SDS011;65074;50.436;8.672;2023-01-26T09:32:05;9.07;;;4.55;;
76256;SDS011;65074;50.436;8.672;2023-01-26T09:34:31;12.95;;;5.30;;
76256;SDS011;65074;50.436;8.672;2023-01-26T09:36:56;12.90;;;4.75;;
76256;SDS011;65074;50.436;8.672;2023-01-26T09:39:21;7.15;;;3.22;;
76256;SDS011;65074;50.436;8.672;2023-01-26T09:44:45;7.35;;;3.00;;
76256;SDS011;65074;50.436;8.672;2023-01-26T09:49:48;8.73;;;4.93;;
76256;SDS011;65074;50.436;8.672;2023-01-26T09:52:23;12.70;;;5.63;;
76256;SDS011;65074;50.436;8.672;2023-01-26T09:54:52;10.18;;;4.78;;
76256;SDS011;65074;50.436;8.672;2023-01-26T09:57:31;11.10;;;4.60;;
76256;SDS011;65074;50.436;8.672;2023-01-26T10:00:06;12.32;;;5.15;;
76256;SDS011;65074;50.436;8.672;2023-01-26T10:09:07;11.27;;;5.70;;
76256;SDS011;65074;50.436;8.672;2023-01-26T10:11:58;8.73;;;3.78;;
76256;SDS011;65074;50.436;8.672;2023-01-26T10:14:40;10.35;;;3.95;;
76256;SDS011;65074;50.436;8.672;2023-01-26T10:17:14;8.10;;;4.30;;
76256;SDS011;65074;50.436;8.672;2023-01-26T10:19:44;7.85;;;4.07;;
76256;SDS011;65074;50.436;8.672;2023-01-26T10:22:28;10.52;;;3.90;;
76256;SDS011;65074;50.436;8.672;2023-01-26T10:25:00;9.65;;;4.32;;
76256;SDS011;65074;50.436;8.672;2023-01-26T10:27:29;12.27;;;5.82;;
76256;SDS011;65074;50.436;8.672;2023-01-26T10:29:54;11.38;;;5.28;;
76256;SDS011;65074;50.436;8.672;2023-01-26T10:32:19;9.85;;;4.70;;
76256;SDS011;65074;50.436;8.672;2023-01-26T10:34:45;10.75;;;4.95;;
76256;SDS011;65074;50.436;8.672;2023-01-26T10:39:59;9.27;;;4.20;;
76256;SDS011;65074;50.436;8.672;2023-01-26T10:42:27;11.60;;;4.75;;
76256;SDS011;65074;50.436;8.672;2023-01-26T10:44:54;13.32;;;5.88;;
76256;SDS011;65074;50.436;8.672;2023-01-26T10:47:21;12.93;;;5.15;;
76256;SDS011;65074;50.436;8.672;2023-01-26T10:49:46;10.43;;;4.55;;
76256;SDS011;65074;50.436;8.672;2023-01-26T10:52:19;14.38;;;5.80;;
76256;SDS011;65074;50.436;8.672;2023-01-26T10:54:47;11.32;;;5.88;;
76256;SDS011;65074;50.436;8.672;2023-01-26T10:57:16;14.13;;;6.38;;
76256;SDS011;65074;50.436;8.672;2023-01-26T10:59:59;3.72;;;2.63;;
76256;SDS011;65074;50.436;8.672;2023-01-26T11:02:34;12.35;;;5.45;;
76256;SDS011;65074;50.436;8.672;2023-01-26T11:07:32;13.55;;;6.63;;
76256;SDS011;65074;50.436;8.672;2023-01-26T11:10:15;14.55;;;6.88;;
76256;SDS011;65074;50.436;8.672;2023-01-26T11:12:47;11.35;;;5.90;;
76256;SDS011;65074;50.436;8.672;2023-01-26T11:15:21;10.75;;;3.92;;
76256;SDS011;65074;50.436;8.672;2023-01-26T11:17:50;16.58;;;7.07;;
76256;SDS011;65074;50.436;8.672;2023-01-26T11:20:36;13.45;;;6.85;;
76256;SDS011;65074;50.436;8.672;2023-01-26T11:31:43;14.63;;;6.43;;
76256;SDS011;65074;50.436;8.672;2023-01-26T11:40:30;11.27;;;5.40;;
76256;SDS011;65074;50.436;8.672;2023-01-26T11:43:05;15.02;;;5.75;;
76256;SDS011;65074;50.436;8.672;2023-01-26T11:51:34;14.10;;;5.13;;
76256;SDS011;65074;50.436;8.672;2023-01-26T11:56:48;15.85;;;5.80;;
76256;SDS011;65074;50.436;8.672;2023-01-26T11:59:16;10.77;;;5.10;;
76256;SDS011;65074;50.436;8.672;2023-01-26T12:01:52;18.85;;;7.13;;
76256;SDS011;65074;50.436;8.672;2023-01-26T12:04:25;16.92;;;7.00;;
76256;SDS011;65074;50.436;8.672;2023-01-26T12:09:51;20.27;;;6.72;;
76256;SDS011;65074;50.436;8.672;2023-01-26T12:17:33;22.55;;;8.55;;
76256;SDS011;65074;50.436;8.672;2023-01-26T12:20:04;18.67;;;8.00;;
76256;SDS011;65074;50.436;8.672;2023-01-26T12:22:37;20.48;;;7.57;;
76256;SDS011;65074;50.436;8.672;2023-01-26T12:33:28;23.30;;;6.38;;
76256;SDS011;65074;50.436;8.672;2023-01-26T12:36:16;16.77;;;6.35;;
76256;SDS011;65074;50.436;8.672;2023-01-26T12:39:02;11.73;;;4.32;;
76256;SDS011;65074;50.436;8.672;2023-01-26T12:52:42;17.00;;;5.93;;
76256;SDS011;65074;50.436;8.672;2023-01-26T12:57:49;18.08;;;6.22;;
76256;SDS011;65074;50.436;8.672;2023-01-26T13:00:21;18.40;;;7.03;;
76256;SDS011;65074;50.436;8.672;2023-01-26T13:02:55;16.50;;;6.38;;
76256;SDS011;65074;50.436;8.672;2023-01-26T13:05:52;15.27;;;5.57;;
76256;SDS011;65074;50.436;8.672;2023-01-26T13:14:22;18.63;;;6.55;;
76256;SDS011;65074;50.436;8.672;2023-01-26T13:16:47;14.90;;;5.38;;
76256;SDS011;65074;50.436;8.672;2023-01-26T13:19:33;20.70;;;7.80;;
76256;SDS011;65074;50.436;8.672;2023-01-26T13:21:58;11.50;;;4.45;;
76256;SDS011;65074;50.436;8.672;2023-01-26T13:31:44;18.23;;;7.00;;
76256;SDS011;65074;50.436;8.672;2023-01-26T13:34:09;17.13;;;6.90;;
76256;SDS011;65074;50.436;8.672;2023-01-26T13:36:40;16.95;;;6.70;;
76256;SDS011;65074;50.436;8.672;2023-01-26T13:39:30;20.60;;;8.30;;
76256;SDS011;65074;50.436;8.672;2023-01-26T13:42:09;17.58;;;6.85;;
76256;SDS011;65074;50.436;8.672;2023-01-26T13:44:43;20.00;;;8.23;;
76256;SDS011;65074;50.436;8.672;2023-01-26T13:47:17;13.25;;;5.03;;
76256;SDS011;65074;50.436;8.672;2023-01-26T13:49:49;19.80;;;7.25;;
76256;SDS011;65074;50.436;8.672;2023-01-26T13:54:44;26.90;;;9.40;;
76256;SDS011;65074;50.436;8.672;2023-01-26T13:57:11;20.65;;;7.68;;
76256;SDS011;65074;50.436;8.672;2023-01-26T13:59:50;20.45;;;7.70;;
76256;SDS011;65074;50.436;8.672;2023-01-26T14:02:24;19.63;;;7.57;;
76256;SDS011;65074;50.436;8.672;2023-01-26T14:04:52;17.90;;;7.03;;
76256;SDS011;65074;50.436;8.672;2023-01-26T14:07:21;21.77;;;6.90;;
76256;SDS011;65074;50.436;8.672;2023-01-26T14:09:50;25.92;;;8.98;;
76256;SDS011;65074;50.436;8.672;2023-01-26T14:12:23;24.25;;;9.05;;
76256;SDS011;65074;50.436;8.672;2023-01-26T14:14:52;18.55;;;7.70;;
76256;SDS011;65074;50.436;8.672;2023-01-26T14:17:33;18.48;;;7.95;;
76256;SDS011;65074;50.436;8.672;2023-01-26T14:20:23;21.83;;;7.53;;
76256;SDS011;65074;50.436;8.672;2023-01-26T14:25:27;25.60;;;9.43;;
76256;SDS011;65074;50.436;8.672;2023-01-26T14:27:53;19.48;;;6.55;;
76256;SDS011;65074;50.436;8.672;2023-01-26T14:30:19;19.30;;;6.55;;
76256;SDS011;65074;50.436;8.672;2023-01-26T14:33:04;23.65;;;8.40;;
76256;SDS011;65074;50.436;8.672;2023-01-26T14:35:35;20.27;;;7.13;;
76256;SDS011;65074;50.436;8.672;2023-01-26T14:38:04;18.63;;;7.20;;
76256;SDS011;65074;50.436;8.672;2023-01-26T14:40:47;17.05;;;6.22;;
76256;SDS011;65074;50.436;8.672;2023-01-26T14:43:14;28.63;;;10.07;;
76256;SDS011;65074;50.436;8.672;2023-01-26T14:45:49;16.23;;;7.03;;
76256;SDS011;65074;50.436;8.672;2023-01-26T14:48:20;16.80;;;6.63;;
76256;SDS011;65074;50.436;8.672;2023-01-26T14:50:50;19.73;;;6.85;;
76256;SDS011;65074;50.436;8.672;2023-01-26T14:53:17;19.98;;;7.40;;
76256;SDS011;65074;50.436;8.672;2023-01-26T14:55:45;20.40;;;7.38;;
76256;SDS011;65074;50.436;8.672;2023-01-26T14:58:33;19.60;;;6.97;;
76256;SDS011;65074;50.436;8.672;2023-01-26T15:00:59;21.25;;;6.97;;
76256;SDS011;65074;50.436;8.672;2023-01-26T15:03:32;23.40;;;8.05;;
76256;SDS011;65074;50.436;8.672;2023-01-26T15:06:05;21.25;;;7.38;;
76256;SDS011;65074;50.436;8.672;2023-01-26T15:09:03;16.15;;;6.60;;
76256;SDS011;65074;50.436;8.672;2023-01-26T15:11:37;21.50;;;6.63;;
76256;SDS011;65074;50.436;8.672;2023-01-26T15:19:55;16.25;;;6.63;;
76256;SDS011;65074;50.436;8.672;2023-01-26T15:22:21;21.25;;;6.80;;
76256;SDS011;65074;50.436;8.672;2023-01-26T15:27:50;17.38;;;7.70;;
76256;SDS011;65074;50.436;8.672;2023-01-26T15:30:19;21.08;;;8.25;;
76256;SDS011;65074;50.436;8.672;2023-01-26T15:32:49;18.05;;;7.45;;
76256;SDS011;65074;50.436;8.672;2023-01-26T15:37:44;18.60;;;6.80;;
76256;SDS011;65074;50.436;8.672;2023-01-26T15:40:10;17.05;;;5.70;;
76256;SDS011;65074;50.436;8.672;2023-01-26T15:42:36;22.05;;;7.93;;
76256;SDS011;65074;50.436;8.672;2023-01-26T15:45:01;21.85;;;8.38;;
76256;SDS011;65074;50.436;8.672;2023-01-26T15:47:27;24.30;;;8.85;;
76256;SDS011;65074;50.436;8.672;2023-01-26T15:49:52;24.35;;;9.35;;
76256;SDS011;65074;50.436;8.672;2023-01-26T15:52:21;15.77;;;6.80;;
76256;SDS011;65074;50.436;8.672;2023-01-26T15:54:50;20.05;;;7.72;;
76256;SDS011;65074;50.436;8.672;2023-01-26T15:57:16;17.42;;;7.05;;
76256;SDS011;65074;50.436;8.672;2023-01-26T15:59:42;20.58;;;7.43;;
76256;SDS011;65074;50.436;8.672;2023-01-26T16:02:17;15.90;;;6.60;;
76256;SDS011;65074;50.436;8.672;2023-01-26T16:04:44;24.35;;;8.23;;
76256;SDS011;65074;50.436;8.672;2023-01-26T16:07:11;19.15;;;7.65;;
76256;SDS011;65074;50.436;8.672;2023-01-26T16:09:38;21.65;;;7.65;;
76256;SDS011;65074;50.436;8.672;2023-01-26T16:12:03;23.27;;;8.93;;
76256;SDS011;65074;50.436;8.672;2023-01-26T16:14:29;25.30;;;8.23;;
76256;SDS011;65074;50.436;8.672;2023-01-26T16:16:54;20.48;;;6.53;;
76256;SDS011;65074;50.436;8.672;2023-01-26T16:19:20;20.00;;;7.88;;
76256;SDS011;65074;50.436;8.672;2023-01-26T16:21:45;17.15;;;6.78;;
76256;SDS011;65074;50.436;8.672;2023-01-26T16:24:10;29.13;;;7.43;;
76256;SDS011;65074;50.436;8.672;2023-01-26T16:26:36;19.58;;;9.02;;
76256;SDS011;65074;50.436;8.672;2023-01-26T16:29:01;27.00;;;9.32;;
76256;SDS011;65074;50.436;8.672;2023-01-26T16:31:28;22.40;;;7.65;;
76256;SDS011;65074;50.436;8.672;2023-01-26T16:33:55;20.55;;;8.07;;
76256;SDS011;65074;50.436;8.672;2023-01-26T16:36:21;19.42;;;7.00;;
76256;SDS011;65074;50.436;8.672;2023-01-26T16:38:46;27.35;;;9.20;;
76256;SDS011;65074;50.436;8.672;2023-01-26T16:41:14;32.30;;;6.93;;
76256;SDS011;65074;50.436;8.672;2023-01-26T16:43:44;26.52;;;8.10;;
76256;SDS011;65074;50.436;8.672;2023-01-26T16:46:09;23.10;;;9.90;;